Las Vegas, Nevada
Traffic Map
Current Weather Conditions
Las Vegas, Nevada
Clear
Clear
92°
Feels Like: 92°
Wind Chill: 92° Ceiling: Unl
Heat Index: 92° Visibility: 10mi
Dew Point: 35° Wind: 6mph
Humidity: 13% Direction: 150° (SSE)
Pressure: 29.96in Gusts: 0mph
Raw Report DataKLAS 280256Z 15005KT 10SM CLR 33/02 A2996 RMK AO2 SLP119 T03330017 53001
Traffic Incident Summary
Active as of:
Severity:
Category:
InformationThere was an issue retrieving the traffic information for this location. Please try a different location or try again shortly.
Advertisements
Track Severe Weather on mobile